sensor_id;sensor_type;location;lat;lon;timestamp;P1;durP1;ratioP1;P2;durP2;ratioP2
59312;SDS011;45084;51.486;7.366;2023-09-19T00:00:57;5.28;;;2.03;;
59312;SDS011;45084;51.486;7.366;2023-09-19T00:03:23;8.15;;;2.45;;
59312;SDS011;45084;51.486;7.366;2023-09-19T00:05:49;7.05;;;2.25;;
59312;SDS011;45084;51.486;7.366;2023-09-19T00:08:15;9.40;;;3.00;;
59312;SDS011;45084;51.486;7.366;2023-09-19T00:10:41;7.90;;;2.80;;
59312;SDS011;45084;51.486;7.366;2023-09-19T00:13:07;8.85;;;2.60;;
59312;SDS011;45084;51.486;7.366;2023-09-19T00:15:38;6.90;;;2.13;;
59312;SDS011;45084;51.486;7.366;2023-09-19T00:18:06;13.73;;;2.58;;
59312;SDS011;45084;51.486;7.366;2023-09-19T00:20:35;10.95;;;2.78;;
59312;SDS011;45084;51.486;7.366;2023-09-19T00:23:01;5.10;;;2.35;;
59312;SDS011;45084;51.486;7.366;2023-09-19T00:25:37;9.18;;;2.40;;
59312;SDS011;45084;51.486;7.366;2023-09-19T00:28:03;12.23;;;2.95;;
59312;SDS011;45084;51.486;7.366;2023-09-19T00:30:29;5.72;;;2.20;;
59312;SDS011;45084;51.486;7.366;2023-09-19T00:32:56;7.03;;;2.40;;
59312;SDS011;45084;51.486;7.366;2023-09-19T00:35:22;9.35;;;2.80;;
59312;SDS011;45084;51.486;7.366;2023-09-19T00:37:50;6.45;;;1.92;;
59312;SDS011;45084;51.486;7.366;2023-09-19T00:40:17;8.15;;;2.58;;
59312;SDS011;45084;51.486;7.366;2023-09-19T00:42:43;5.85;;;1.98;;
59312;SDS011;45084;51.486;7.366;2023-09-19T00:45:13;7.90;;;2.63;;
59312;SDS011;45084;51.486;7.366;2023-09-19T00:47:44;8.13;;;2.50;;
59312;SDS011;45084;51.486;7.366;2023-09-19T00:50:14;10.15;;;2.60;;
59312;SDS011;45084;51.486;7.366;2023-09-19T00:52:46;8.90;;;2.28;;
59312;SDS011;45084;51.486;7.366;2023-09-19T00:55:14;7.80;;;2.45;;
59312;SDS011;45084;51.486;7.366;2023-09-19T00:57:41;12.73;;;3.10;;
59312;SDS011;45084;51.486;7.366;2023-09-19T01:00:07;8.35;;;2.17;;
59312;SDS011;45084;51.486;7.366;2023-09-19T01:02:40;8.27;;;2.83;;
59312;SDS011;45084;51.486;7.366;2023-09-19T01:05:09;7.82;;;3.05;;
59312;SDS011;45084;51.486;7.366;2023-09-19T01:07:35;9.13;;;2.35;;
59312;SDS011;45084;51.486;7.366;2023-09-19T01:10:03;9.98;;;2.42;;
59312;SDS011;45084;51.486;7.366;2023-09-19T01:12:33;12.45;;;2.55;;
59312;SDS011;45084;51.486;7.366;2023-09-19T01:21:03;9.50;;;2.55;;
59312;SDS011;45084;51.486;7.366;2023-09-19T01:27:17;7.63;;;1.85;;
59312;SDS011;45084;51.486;7.366;2023-09-19T01:30:09;11.93;;;2.40;;
59312;SDS011;45084;51.486;7.366;2023-09-19T01:32:36;11.60;;;2.92;;
59312;SDS011;45084;51.486;7.366;2023-09-19T01:35:03;10.32;;;2.38;;
59312;SDS011;45084;51.486;7.366;2023-09-19T01:37:29;8.50;;;2.45;;
59312;SDS011;45084;51.486;7.366;2023-09-19T01:40:00;12.55;;;2.75;;
59312;SDS011;45084;51.486;7.366;2023-09-19T01:45:34;9.18;;;2.30;;
59312;SDS011;45084;51.486;7.366;2023-09-19T01:48:13;8.75;;;2.05;;
59312;SDS011;45084;51.486;7.366;2023-09-19T01:50:44;10.10;;;2.53;;
59312;SDS011;45084;51.486;7.366;2023-09-19T01:55:55;9.43;;;2.83;;
59312;SDS011;45084;51.486;7.366;2023-09-19T02:01:10;10.60;;;2.53;;
59312;SDS011;45084;51.486;7.366;2023-09-19T02:03:40;9.27;;;2.47;;
59312;SDS011;45084;51.486;7.366;2023-09-19T02:06:06;10.65;;;2.88;;
59312;SDS011;45084;51.486;7.366;2023-09-19T02:08:36;7.63;;;2.47;;
59312;SDS011;45084;51.486;7.366;2023-09-19T02:11:02;5.63;;;2.30;;
59312;SDS011;45084;51.486;7.366;2023-09-19T02:13:28;8.38;;;2.38;;
59312;SDS011;45084;51.486;7.366;2023-09-19T02:15:56;9.35;;;2.40;;
59312;SDS011;45084;51.486;7.366;2023-09-19T02:18:22;10.38;;;2.53;;
59312;SDS011;45084;51.486;7.366;2023-09-19T02:20:49;10.88;;;2.58;;
59312;SDS011;45084;51.486;7.366;2023-09-19T02:23:18;13.02;;;2.47;;
59312;SDS011;45084;51.486;7.366;2023-09-19T02:25:54;6.65;;;2.17;;
59312;SDS011;45084;51.486;7.366;2023-09-19T02:28:21;10.98;;;2.15;;
59312;SDS011;45084;51.486;7.366;2023-09-19T02:30:54;8.88;;;2.63;;
59312;SDS011;45084;51.486;7.366;2023-09-19T02:33:21;11.02;;;2.60;;
59312;SDS011;45084;51.486;7.366;2023-09-19T02:35:46;14.07;;;2.60;;
59312;SDS011;45084;51.486;7.366;2023-09-19T02:38:12;8.20;;;2.38;;
59312;SDS011;45084;51.486;7.366;2023-09-19T02:40:45;6.95;;;2.10;;
59312;SDS011;45084;51.486;7.366;2023-09-19T02:43:11;9.45;;;2.30;;
59312;SDS011;45084;51.486;7.366;2023-09-19T02:45:37;9.30;;;2.83;;
59312;SDS011;45084;51.486;7.366;2023-09-19T02:48:03;10.57;;;2.33;;
59312;SDS011;45084;51.486;7.366;2023-09-19T02:50:29;12.52;;;2.33;;
59312;SDS011;45084;51.486;7.366;2023-09-19T02:52:55;12.52;;;1.90;;
59312;SDS011;45084;51.486;7.366;2023-09-19T02:55:21;9.07;;;2.80;;
59312;SDS011;45084;51.486;7.366;2023-09-19T02:57:50;10.52;;;2.50;;
59312;SDS011;45084;51.486;7.366;2023-09-19T03:00:22;8.50;;;2.70;;
59312;SDS011;45084;51.486;7.366;2023-09-19T03:02:55;9.27;;;2.08;;
59312;SDS011;45084;51.486;7.366;2023-09-19T03:05:22;12.25;;;2.53;;
59312;SDS011;45084;51.486;7.366;2023-09-19T03:07:51;9.45;;;2.50;;
59312;SDS011;45084;51.486;7.366;2023-09-19T03:10:26;8.95;;;2.97;;
59312;SDS011;45084;51.486;7.366;2023-09-19T03:12:53;9.27;;;2.10;;
59312;SDS011;45084;51.486;7.366;2023-09-19T03:15:18;10.95;;;2.80;;
59312;SDS011;45084;51.486;7.366;2023-09-19T03:17:50;10.88;;;2.72;;
59312;SDS011;45084;51.486;7.366;2023-09-19T03:20:22;14.55;;;2.70;;
59312;SDS011;45084;51.486;7.366;2023-09-19T03:22:48;7.55;;;2.25;;
59312;SDS011;45084;51.486;7.366;2023-09-19T03:25:17;6.20;;;2.00;;
59312;SDS011;45084;51.486;7.366;2023-09-19T03:27:53;10.90;;;2.38;;
59312;SDS011;45084;51.486;7.366;2023-09-19T03:30:23;7.25;;;2.60;;
59312;SDS011;45084;51.486;7.366;2023-09-19T03:32:49;7.18;;;2.00;;
59312;SDS011;45084;51.486;7.366;2023-09-19T03:35:15;13.50;;;3.20;;
59312;SDS011;45084;51.486;7.366;2023-09-19T03:37:42;9.30;;;1.88;;
59312;SDS011;45084;51.486;7.366;2023-09-19T03:40:09;6.95;;;2.28;;
59312;SDS011;45084;51.486;7.366;2023-09-19T03:42:38;9.38;;;2.70;;
59312;SDS011;45084;51.486;7.366;2023-09-19T03:45:09;6.88;;;2.33;;
59312;SDS011;45084;51.486;7.366;2023-09-19T03:47:38;10.50;;;2.15;;
59312;SDS011;45084;51.486;7.366;2023-09-19T03:50:05;8.55;;;2.28;;
59312;SDS011;45084;51.486;7.366;2023-09-19T03:52:44;7.60;;;2.03;;
59312;SDS011;45084;51.486;7.366;2023-09-19T03:55:44;9.18;;;2.28;;
59312;SDS011;45084;51.486;7.366;2023-09-19T03:58:10;8.63;;;2.53;;
59312;SDS011;45084;51.486;7.366;2023-09-19T04:00:36;7.60;;;2.05;;
59312;SDS011;45084;51.486;7.366;2023-09-19T04:03:02;7.80;;;2.20;;
59312;SDS011;45084;51.486;7.366;2023-09-19T04:05:31;10.52;;;2.58;;
59312;SDS011;45084;51.486;7.366;2023-09-19T04:07:57;9.13;;;2.45;;
59312;SDS011;45084;51.486;7.366;2023-09-19T04:10:23;12.25;;;2.58;;
59312;SDS011;45084;51.486;7.366;2023-09-19T04:12:56;13.10;;;2.10;;
59312;SDS011;45084;51.486;7.366;2023-09-19T04:15:22;13.45;;;2.50;;
59312;SDS011;45084;51.486;7.366;2023-09-19T04:17:54;14.15;;;2.83;;
59312;SDS011;45084;51.486;7.366;2023-09-19T04:20:19;7.97;;;2.42;;
59312;SDS011;45084;51.486;7.366;2023-09-19T04:50:44;11.48;;;2.20;;
59312;SDS011;45084;51.486;7.366;2023-09-19T04:53:10;7.38;;;2.08;;
59312;SDS011;45084;51.486;7.366;2023-09-19T04:55:35;6.95;;;2.53;;
59312;SDS011;45084;51.486;7.366;2023-09-19T04:58:01;9.13;;;2.10;;
59312;SDS011;45084;51.486;7.366;2023-09-19T05:00:27;8.18;;;2.88;;
59312;SDS011;45084;51.486;7.366;2023-09-19T05:02:55;8.65;;;2.53;;
59312;SDS011;45084;51.486;7.366;2023-09-19T05:05:22;9.18;;;2.70;;
59312;SDS011;45084;51.486;7.366;2023-09-19T05:07:48;12.00;;;3.10;;
59312;SDS011;45084;51.486;7.366;2023-09-19T05:10:16;3.50;;;1.70;;
59312;SDS011;45084;51.486;7.366;2023-09-19T05:12:51;12.55;;;2.45;;
59312;SDS011;45084;51.486;7.366;2023-09-19T05:15:20;9.90;;;2.20;;
59312;SDS011;45084;51.486;7.366;2023-09-19T05:18:04;10.57;;;2.08;;
59312;SDS011;45084;51.486;7.366;2023-09-19T05:20:31;7.55;;;2.65;;
59312;SDS011;45084;51.486;7.366;2023-09-19T05:23:06;10.40;;;2.28;;
59312;SDS011;45084;51.486;7.366;2023-09-19T05:25:35;9.55;;;2.20;;
59312;SDS011;45084;51.486;7.366;2023-09-19T05:28:05;8.18;;;3.03;;
59312;SDS011;45084;51.486;7.366;2023-09-19T05:30:31;8.13;;;2.25;;
59312;SDS011;45084;51.486;7.366;2023-09-19T05:33:01;9.93;;;2.22;;
59312;SDS011;45084;51.486;7.366;2023-09-19T05:35:33;7.68;;;2.28;;
59312;SDS011;45084;51.486;7.366;2023-09-19T05:37:59;9.40;;;2.40;;
59312;SDS011;45084;51.486;7.366;2023-09-19T05:40:28;10.20;;;2.70;;
59312;SDS011;45084;51.486;7.366;2023-09-19T05:43:01;10.82;;;2.58;;
59312;SDS011;45084;51.486;7.366;2023-09-19T05:45:30;11.75;;;2.78;;
59312;SDS011;45084;51.486;7.366;2023-09-19T05:48:10;12.77;;;2.35;;
59312;SDS011;45084;51.486;7.366;2023-09-19T05:54:00;8.27;;;2.60;;
59312;SDS011;45084;51.486;7.366;2023-09-19T05:56:25;11.15;;;2.72;;
59312;SDS011;45084;51.486;7.366;2023-09-19T05:58:52;10.48;;;2.72;;
59312;SDS011;45084;51.486;7.366;2023-09-19T06:01:27;6.75;;;2.47;;
59312;SDS011;45084;51.486;7.366;2023-09-19T06:04:01;7.85;;;2.50;;
59312;SDS011;45084;51.486;7.366;2023-09-19T06:06:27;7.97;;;2.38;;
59312;SDS011;45084;51.486;7.366;2023-09-19T06:08:52;7.68;;;2.13;;
59312;SDS011;45084;51.486;7.366;2023-09-19T06:11:18;11.98;;;2.83;;
59312;SDS011;45084;51.486;7.366;2023-09-19T06:13:45;8.75;;;2.33;;
59312;SDS011;45084;51.486;7.366;2023-09-19T06:16:12;10.25;;;2.20;;
59312;SDS011;45084;51.486;7.366;2023-09-19T06:18:38;11.10;;;2.80;;
59312;SDS011;45084;51.486;7.366;2023-09-19T06:21:04;11.52;;;2.72;;
59312;SDS011;45084;51.486;7.366;2023-09-19T06:23:33;9.10;;;3.00;;
59312;SDS011;45084;51.486;7.366;2023-09-19T06:26:00;8.05;;;1.92;;
59312;SDS011;45084;51.486;7.366;2023-09-19T06:28:25;12.07;;;2.53;;
59312;SDS011;45084;51.486;7.366;2023-09-19T06:30:53;7.40;;;2.67;;
59312;SDS011;45084;51.486;7.366;2023-09-19T06:33:19;9.75;;;2.17;;
59312;SDS011;45084;51.486;7.366;2023-09-19T06:35:46;9.25;;;2.30;;
59312;SDS011;45084;51.486;7.366;2023-09-19T06:38:13;8.35;;;2.30;;
59312;SDS011;45084;51.486;7.366;2023-09-19T06:40:40;10.40;;;2.78;;
59312;SDS011;45084;51.486;7.366;2023-09-19T06:43:09;8.65;;;2.40;;
59312;SDS011;45084;51.486;7.366;2023-09-19T06:45:35;7.47;;;2.63;;
59312;SDS011;45084;51.486;7.366;2023-09-19T06:48:10;11.95;;;2.40;;
59312;SDS011;45084;51.486;7.366;2023-09-19T06:54:29;6.93;;;2.47;;
59312;SDS011;45084;51.486;7.366;2023-09-19T06:57:41;12.45;;;2.95;;
59312;SDS011;45084;51.486;7.366;2023-09-19T07:00:09;10.45;;;2.15;;
59312;SDS011;45084;51.486;7.366;2023-09-19T07:03:02;6.57;;;2.20;;
59312;SDS011;45084;51.486;7.366;2023-09-19T07:05:44;13.30;;;3.30;;
59312;SDS011;45084;51.486;7.366;2023-09-19T07:08:18;13.18;;;2.55;;
59312;SDS011;45084;51.486;7.366;2023-09-19T07:10:47;7.57;;;2.63;;
59312;SDS011;45084;51.486;7.366;2023-09-19T07:13:32;9.60;;;2.10;;
59312;SDS011;45084;51.486;7.366;2023-09-19T07:16:02;6.78;;;2.15;;
59312;SDS011;45084;51.486;7.366;2023-09-19T07:19:28;15.60;;;2.35;;
59312;SDS011;45084;51.486;7.366;2023-09-19T07:22:04;6.70;;;2.45;;
59312;SDS011;45084;51.486;7.366;2023-09-19T07:28:01;7.88;;;2.15;;
59312;SDS011;45084;51.486;7.366;2023-09-19T07:30:45;15.68;;;2.53;;
59312;SDS011;45084;51.486;7.366;2023-09-19T07:33:58;10.90;;;2.42;;
59312;SDS011;45084;51.486;7.366;2023-09-19T07:39:12;10.88;;;2.72;;
59312;SDS011;45084;51.486;7.366;2023-09-19T07:41:40;12.10;;;3.30;;
59312;SDS011;45084;51.486;7.366;2023-09-19T07:44:25;9.82;;;2.72;;
59312;SDS011;45084;51.486;7.366;2023-09-19T07:50:41;7.88;;;2.55;;
59312;SDS011;45084;51.486;7.366;2023-09-19T07:53:29;10.00;;;2.75;;
59312;SDS011;45084;51.486;7.366;2023-09-19T07:56:07;12.25;;;2.75;;
59312;SDS011;45084;51.486;7.366;2023-09-19T07:58:46;11.05;;;3.08;;
59312;SDS011;45084;51.486;7.366;2023-09-19T08:02:10;7.38;;;2.47;;
59312;SDS011;45084;51.486;7.366;2023-09-19T08:04:43;9.02;;;2.67;;
59312;SDS011;45084;51.486;7.366;2023-09-19T08:20:35;11.82;;;2.50;;
59312;SDS011;45084;51.486;7.366;2023-09-19T08:23:02;12.82;;;2.53;;
59312;SDS011;45084;51.486;7.366;2023-09-19T08:25:28;9.48;;;2.75;;
59312;SDS011;45084;51.486;7.366;2023-09-19T08:27:54;12.30;;;2.45;;
59312;SDS011;45084;51.486;7.366;2023-09-19T08:30:23;7.25;;;2.13;;
59312;SDS011;45084;51.486;7.366;2023-09-19T08:32:49;7.93;;;2.17;;
59312;SDS011;45084;51.486;7.366;2023-09-19T08:35:15;14.65;;;2.92;;
59312;SDS011;45084;51.486;7.366;2023-09-19T08:37:44;14.63;;;2.63;;
59312;SDS011;45084;51.486;7.366;2023-09-19T08:40:13;13.02;;;2.88;;
59312;SDS011;45084;51.486;7.366;2023-09-19T08:42:51;14.98;;;2.67;;
59312;SDS011;45084;51.486;7.366;2023-09-19T08:45:20;10.00;;;2.55;;
59312;SDS011;45084;51.486;7.366;2023-09-19T08:50:55;11.57;;;2.90;;
59312;SDS011;45084;51.486;7.366;2023-09-19T08:53:36;10.48;;;2.55;;
59312;SDS011;45084;51.486;7.366;2023-09-19T08:56:17;14.65;;;2.97;;
59312;SDS011;45084;51.486;7.366;2023-09-19T08:58:48;4.68;;;1.88;;
59312;SDS011;45084;51.486;7.366;2023-09-19T09:01:32;7.68;;;2.40;;
59312;SDS011;45084;51.486;7.366;2023-09-19T09:03:59;10.65;;;2.88;;
59312;SDS011;45084;51.486;7.366;2023-09-19T09:06:27;9.90;;;2.65;;
59312;SDS011;45084;51.486;7.366;2023-09-19T09:08:54;10.93;;;2.50;;
59312;SDS011;45084;51.486;7.366;2023-09-19T09:11:20;13.77;;;2.28;;
59312;SDS011;45084;51.486;7.366;2023-09-19T09:13:49;10.65;;;2.67;;
59312;SDS011;45084;51.486;7.366;2023-09-19T09:16:15;8.15;;;2.30;;
59312;SDS011;45084;51.486;7.366;2023-09-19T09:18:45;9.20;;;2.72;;
59312;SDS011;45084;51.486;7.366;2023-09-19T09:21:12;9.43;;;2.40;;
59312;SDS011;45084;51.486;7.366;2023-09-19T09:23:39;12.23;;;2.55;;
59312;SDS011;45084;51.486;7.366;2023-09-19T09:26:05;11.55;;;2.60;;
59312;SDS011;45084;51.486;7.366;2023-09-19T09:28:32;9.02;;;2.38;;
59312;SDS011;45084;51.486;7.366;2023-09-19T09:31:00;11.82;;;2.80;;
59312;SDS011;45084;51.486;7.366;2023-09-19T09:33:34;12.10;;;2.78;;
59312;SDS011;45084;51.486;7.366;2023-09-19T09:36:01;8.25;;;1.90;;
59312;SDS011;45084;51.486;7.366;2023-09-19T09:38:46;9.43;;;1.95;;
59312;SDS011;45084;51.486;7.366;2023-09-19T09:41:13;10.68;;;2.10;;
59312;SDS011;45084;51.486;7.366;2023-09-19T09:43:52;7.13;;;2.30;;
59312;SDS011;45084;51.486;7.366;2023-09-19T09:46:18;7.65;;;2.60;;
59312;SDS011;45084;51.486;7.366;2023-09-19T09:51:39;11.48;;;2.33;;
59312;SDS011;45084;51.486;7.366;2023-09-19T09:54:13;6.85;;;2.67;;
59312;SDS011;45084;51.486;7.366;2023-09-19T09:56:58;7.95;;;2.47;;
59312;SDS011;45084;51.486;7.366;2023-09-19T10:02:12;9.68;;;2.17;;
59312;SDS011;45084;51.486;7.366;2023-09-19T10:04:38;12.23;;;2.80;;
59312;SDS011;45084;51.486;7.366;2023-09-19T10:07:26;9.50;;;2.50;;
59312;SDS011;45084;51.486;7.366;2023-09-19T10:10:03;10.20;;;2.30;;
59312;SDS011;45084;51.486;7.366;2023-09-19T11:00:18;7.55;;;2.78;;
59312;SDS011;45084;51.486;7.366;2023-09-19T11:05:40;8.75;;;2.63;;
59312;SDS011;45084;51.486;7.366;2023-09-19T11:08:07;4.90;;;2.00;;
59312;SDS011;45084;51.486;7.366;2023-09-19T11:10:49;6.85;;;2.22;;
59312;SDS011;45084;51.486;7.366;2023-09-19T11:13:31;8.00;;;2.15;;
59312;SDS011;45084;51.486;7.366;2023-09-19T11:29:46;6.50;;;2.08;;
59312;SDS011;45084;51.486;7.366;2023-09-19T11:32:14;6.07;;;2.03;;
59312;SDS011;45084;51.486;7.366;2023-09-19T11:34:41;9.50;;;2.35;;
59312;SDS011;45084;51.486;7.366;2023-09-19T11:54:01;6.43;;;2.08;;
59312;SDS011;45084;51.486;7.366;2023-09-19T11:59:42;5.57;;;2.00;;
59312;SDS011;45084;51.486;7.366;2023-09-19T12:02:08;5.30;;;1.77;;
59312;SDS011;45084;51.486;7.366;2023-09-19T12:04:46;8.93;;;2.70;;
59312;SDS011;45084;51.486;7.366;2023-09-19T12:07:15;8.80;;;2.50;;
59312;SDS011;45084;51.486;7.366;2023-09-19T12:09:42;5.28;;;2.15;;
59312;SDS011;45084;51.486;7.366;2023-09-19T12:12:18;6.22;;;1.80;;
59312;SDS011;45084;51.486;7.366;2023-09-19T12:14:48;7.78;;;2.35;;
59312;SDS011;45084;51.486;7.366;2023-09-19T12:17:15;5.97;;;1.88;;
59312;SDS011;45084;51.486;7.366;2023-09-19T12:19:53;5.88;;;2.15;;
59312;SDS011;45084;51.486;7.366;2023-09-19T12:22:20;6.60;;;1.92;;
59312;SDS011;45084;51.486;7.366;2023-09-19T12:24:46;7.15;;;2.55;;
59312;SDS011;45084;51.486;7.366;2023-09-19T12:27:13;5.32;;;1.83;;
59312;SDS011;45084;51.486;7.366;2023-09-19T12:29:46;8.07;;;2.95;;
59312;SDS011;45084;51.486;7.366;2023-09-19T12:32:21;5.75;;;2.40;;
59312;SDS011;45084;51.486;7.366;2023-09-19T12:34:59;6.45;;;2.20;;
59312;SDS011;45084;51.486;7.366;2023-09-19T12:37:28;5.57;;;2.30;;
59312;SDS011;45084;51.486;7.366;2023-09-19T12:40:03;5.75;;;2.00;;
59312;SDS011;45084;51.486;7.366;2023-09-19T12:42:47;5.55;;;2.03;;
59312;SDS011;45084;51.486;7.366;2023-09-19T12:45:14;7.60;;;2.00;;
59312;SDS011;45084;51.486;7.366;2023-09-19T12:53:32;5.93;;;2.00;;
59312;SDS011;45084;51.486;7.366;2023-09-19T12:56:05;6.53;;;1.65;;
59312;SDS011;45084;51.486;7.366;2023-09-19T12:58:33;4.07;;;1.67;;
59312;SDS011;45084;51.486;7.366;2023-09-19T13:24:33;5.05;;;1.90;;
59312;SDS011;45084;51.486;7.366;2023-09-19T13:27:01;5.80;;;1.70;;
59312;SDS011;45084;51.486;7.366;2023-09-19T13:29:28;4.57;;;1.90;;
59312;SDS011;45084;51.486;7.366;2023-09-19T13:32:01;4.05;;;1.90;;
59312;SDS011;45084;51.486;7.366;2023-09-19T13:34:27;7.57;;;1.90;;
59312;SDS011;45084;51.486;7.366;2023-09-19T13:36:54;6.97;;;1.80;;
59312;SDS011;45084;51.486;7.366;2023-09-19T13:39:20;3.20;;;1.35;;
59312;SDS011;45084;51.486;7.366;2023-09-19T13:41:46;6.97;;;1.23;;
59312;SDS011;45084;51.486;7.366;2023-09-19T13:44:12;4.47;;;1.70;;
59312;SDS011;45084;51.486;7.366;2023-09-19T13:46:38;2.78;;;1.50;;
59312;SDS011;45084;51.486;7.366;2023-09-19T13:49:05;3.90;;;1.50;;
59312;SDS011;45084;51.486;7.366;2023-09-19T13:51:31;2.90;;;1.50;;
59312;SDS011;45084;51.486;7.366;2023-09-19T13:53:57;3.75;;;1.50;;
59312;SDS011;45084;51.486;7.366;2023-09-19T13:56:24;4.38;;;1.40;;
59312;SDS011;45084;51.486;7.366;2023-09-19T13:58:52;6.43;;;1.50;;
59312;SDS011;45084;51.486;7.366;2023-09-19T14:01:18;3.03;;;1.20;;
59312;SDS011;45084;51.486;7.366;2023-09-19T14:03:44;8.35;;;1.42;;
59312;SDS011;45084;51.486;7.366;2023-09-19T14:06:15;5.43;;;1.50;;
59312;SDS011;45084;51.486;7.366;2023-09-19T14:08:41;3.50;;;1.40;;
59312;SDS011;45084;51.486;7.366;2023-09-19T14:11:07;5.78;;;1.50;;
59312;SDS011;45084;51.486;7.366;2023-09-19T14:13:33;3.50;;;1.50;;
59312;SDS011;45084;51.486;7.366;2023-09-19T14:16:03;7.38;;;1.40;;
59312;SDS011;45084;51.486;7.366;2023-09-19T14:18:33;4.50;;;1.48;;
59312;SDS011;45084;51.486;7.366;2023-09-19T14:21:06;4.80;;;0.98;;
59312;SDS011;45084;51.486;7.366;2023-09-19T14:23:39;7.25;;;1.48;;
59312;SDS011;45084;51.486;7.366;2023-09-19T14:26:08;3.25;;;1.20;;
59312;SDS011;45084;51.486;7.366;2023-09-19T14:28:34;4.07;;;1.42;;
59312;SDS011;45084;51.486;7.366;2023-09-19T14:31:10;5.45;;;1.67;;
59312;SDS011;45084;51.486;7.366;2023-09-19T15:10:49;4.22;;;1.20;;
59312;SDS011;45084;51.486;7.366;2023-09-19T15:13:17;3.92;;;1.02;;
59312;SDS011;45084;51.486;7.366;2023-09-19T15:15:43;5.18;;;1.38;;
59312;SDS011;45084;51.486;7.366;2023-09-19T15:18:12;3.17;;;1.17;;
59312;SDS011;45084;51.486;7.366;2023-09-19T15:20:42;5.18;;;1.10;;
59312;SDS011;45084;51.486;7.366;2023-09-19T15:23:11;8.27;;;1.30;;
59312;SDS011;45084;51.486;7.366;2023-09-19T15:25:38;3.67;;;1.10;;
59312;SDS011;45084;51.486;7.366;2023-09-19T15:28:05;2.95;;;1.02;;
59312;SDS011;45084;51.486;7.366;2023-09-19T15:30:39;2.13;;;0.98;;
59312;SDS011;45084;51.486;7.366;2023-09-19T15:33:04;5.20;;;1.23;;
59312;SDS011;45084;51.486;7.366;2023-09-19T15:35:30;2.83;;;1.02;;
59312;SDS011;45084;51.486;7.366;2023-09-19T15:37:55;2.75;;;1.00;;
59312;SDS011;45084;51.486;7.366;2023-09-19T15:40:21;1.77;;;0.88;;
59312;SDS011;45084;51.486;7.366;2023-09-19T15:42:49;2.80;;;1.13;;
59312;SDS011;45084;51.486;7.366;2023-09-19T15:45:15;2.25;;;0.90;;
59312;SDS011;45084;51.486;7.366;2023-09-19T15:47:41;2.53;;;1.17;;
59312;SDS011;45084;51.486;7.366;2023-09-19T15:50:08;4.65;;;1.23;;
59312;SDS011;45084;51.486;7.366;2023-09-19T15:52:40;2.65;;;0.90;;
59312;SDS011;45084;51.486;7.366;2023-09-19T15:55:07;2.08;;;0.95;;
59312;SDS011;45084;51.486;7.366;2023-09-19T15:57:33;5.05;;;1.10;;
59312;SDS011;45084;51.486;7.366;2023-09-19T16:00:01;5.15;;;0.98;;
59312;SDS011;45084;51.486;7.366;2023-09-19T16:02:29;2.15;;;0.90;;
59312;SDS011;45084;51.486;7.366;2023-09-19T16:04:55;3.05;;;0.90;;
59312;SDS011;45084;51.486;7.366;2023-09-19T16:07:21;4.00;;;1.20;;
59312;SDS011;45084;51.486;7.366;2023-09-19T16:09:46;4.30;;;1.10;;
59312;SDS011;45084;51.486;7.366;2023-09-19T16:12:12;4.22;;;1.00;;
59312;SDS011;45084;51.486;7.366;2023-09-19T16:14:39;3.08;;;1.02;;
59312;SDS011;45084;51.486;7.366;2023-09-19T16:17:05;3.53;;;1.00;;
59312;SDS011;45084;51.486;7.366;2023-09-19T16:19:33;3.90;;;1.33;;
59312;SDS011;45084;51.486;7.366;2023-09-19T16:21:58;4.60;;;1.20;;
59312;SDS011;45084;51.486;7.366;2023-09-19T16:24:24;3.42;;;1.10;;
59312;SDS011;45084;51.486;7.366;2023-09-19T16:26:51;2.72;;;0.85;;
59312;SDS011;45084;51.486;7.366;2023-09-19T16:29:17;4.22;;;1.10;;
59312;SDS011;45084;51.486;7.366;2023-09-19T16:31:43;2.83;;;1.10;;
59312;SDS011;45084;51.486;7.366;2023-09-19T16:34:10;3.85;;;0.90;;
59312;SDS011;45084;51.486;7.366;2023-09-19T16:36:35;2.85;;;1.10;;
59312;SDS011;45084;51.486;7.366;2023-09-19T16:39:01;4.22;;;1.15;;
59312;SDS011;45084;51.486;7.366;2023-09-19T16:41:28;3.88;;;1.17;;
59312;SDS011;45084;51.486;7.366;2023-09-19T16:43:54;3.28;;;0.90;;
59312;SDS011;45084;51.486;7.366;2023-09-19T16:46:19;4.43;;;1.27;;
59312;SDS011;45084;51.486;7.366;2023-09-19T16:48:46;2.83;;;1.02;;
59312;SDS011;45084;51.486;7.366;2023-09-19T16:51:13;3.10;;;1.27;;
59312;SDS011;45084;51.486;7.366;2023-09-19T16:53:39;4.22;;;1.00;;
59312;SDS011;45084;51.486;7.366;2023-09-19T16:56:11;3.40;;;1.27;;
59312;SDS011;45084;51.486;7.366;2023-09-19T16:58:41;1.73;;;1.20;;
59312;SDS011;45084;51.486;7.366;2023-09-19T17:01:10;3.38;;;1.27;;
59312;SDS011;45084;51.486;7.366;2023-09-19T17:03:40;2.15;;;1.02;;
59312;SDS011;45084;51.486;7.366;2023-09-19T17:06:07;6.15;;;1.45;;
59312;SDS011;45084;51.486;7.366;2023-09-19T17:08:35;2.03;;;0.90;;
59312;SDS011;45084;51.486;7.366;2023-09-19T17:11:05;2.90;;;1.15;;
59312;SDS011;45084;51.486;7.366;2023-09-19T17:13:34;3.10;;;1.05;;
59312;SDS011;45084;51.486;7.366;2023-09-19T17:16:04;3.10;;;1.00;;
59312;SDS011;45084;51.486;7.366;2023-09-19T17:18:33;3.25;;;1.25;;
59312;SDS011;45084;51.486;7.366;2023-09-19T17:21:03;2.30;;;1.08;;
59312;SDS011;45084;51.486;7.366;2023-09-19T17:23:34;5.35;;;1.10;;
59312;SDS011;45084;51.486;7.366;2023-09-19T17:28:27;3.60;;;1.58;;
59312;SDS011;45084;51.486;7.366;2023-09-19T17:30:53;3.45;;;1.42;;
59312;SDS011;45084;51.486;7.366;2023-09-19T17:33:18;2.60;;;1.25;;
59312;SDS011;45084;51.486;7.366;2023-09-19T17:35:44;2.45;;;1.17;;
59312;SDS011;45084;51.486;7.366;2023-09-19T17:38:11;4.03;;;1.10;;
59312;SDS011;45084;51.486;7.366;2023-09-19T17:40:40;1.13;;;0.85;;
59312;SDS011;45084;51.486;7.366;2023-09-19T17:43:06;2.70;;;0.98;;
59312;SDS011;45084;51.486;7.366;2023-09-19T17:45:31;6.55;;;1.00;;
59312;SDS011;45084;51.486;7.366;2023-09-19T17:47:57;2.53;;;1.15;;
59312;SDS011;45084;51.486;7.366;2023-09-19T17:50:24;5.75;;;1.33;;
59312;SDS011;45084;51.486;7.366;2023-09-19T17:52:50;3.50;;;1.33;;
59312;SDS011;45084;51.486;7.366;2023-09-19T17:55:16;3.33;;;1.30;;
59312;SDS011;45084;51.486;7.366;2023-09-19T17:57:50;6.30;;;1.17;;
59312;SDS011;45084;51.486;7.366;2023-09-19T18:00:16;3.65;;;1.33;;
59312;SDS011;45084;51.486;7.366;2023-09-19T18:02:43;1.77;;;1.00;;
59312;SDS011;45084;51.486;7.366;2023-09-19T18:05:08;4.57;;;1.23;;
59312;SDS011;45084;51.486;7.366;2023-09-19T18:07:42;3.58;;;1.33;;
59312;SDS011;45084;51.486;7.366;2023-09-19T18:20:34;3.65;;;1.10;;
59312;SDS011;45084;51.486;7.366;2023-09-19T18:23:05;4.50;;;1.30;;
59312;SDS011;45084;51.486;7.366;2023-09-19T18:25:36;3.67;;;1.30;;
59312;SDS011;45084;51.486;7.366;2023-09-19T18:28:05;3.22;;;1.50;;
59312;SDS011;45084;51.486;7.366;2023-09-19T18:30:31;3.45;;;1.10;;
59312;SDS011;45084;51.486;7.366;2023-09-19T18:32:59;3.33;;;1.20;;
59312;SDS011;45084;51.486;7.366;2023-09-19T18:35:28;5.20;;;1.20;;
59312;SDS011;45084;51.486;7.366;2023-09-19T18:37:56;3.38;;;1.48;;
59312;SDS011;45084;51.486;7.366;2023-09-19T18:40:22;2.88;;;1.40;;
59312;SDS011;45084;51.486;7.366;2023-09-19T18:42:48;3.85;;;1.33;;
59312;SDS011;45084;51.486;7.366;2023-09-19T18:45:14;3.20;;;1.30;;
59312;SDS011;45084;51.486;7.366;2023-09-19T18:47:41;4.20;;;1.48;;
59312;SDS011;45084;51.486;7.366;2023-09-19T18:50:07;5.68;;;1.33;;
59312;SDS011;45084;51.486;7.366;2023-09-19T18:52:36;2.85;;;1.17;;
59312;SDS011;45084;51.486;7.366;2023-09-19T18:55:04;2.47;;;1.23;;
59312;SDS011;45084;51.486;7.366;2023-09-19T18:57:34;6.50;;;1.33;;
59312;SDS011;45084;51.486;7.366;2023-09-19T19:00:05;3.60;;;1.38;;
59312;SDS011;45084;51.486;7.366;2023-09-19T19:02:35;3.08;;;1.20;;
59312;SDS011;45084;51.486;7.366;2023-09-19T19:05:08;4.03;;;1.35;;
59312;SDS011;45084;51.486;7.366;2023-09-19T19:07:37;4.00;;;1.35;;
59312;SDS011;45084;51.486;7.366;2023-09-19T19:10:08;2.22;;;1.20;;